createdAt,value
2019-05-18T00:01:28.657Z,10.83
2019-05-18T00:03:58.291Z,10.23
2019-05-18T00:06:28.055Z,12.80
2019-05-18T00:08:57.737Z,10.93
2019-05-18T00:11:27.508Z,9.43
2019-05-18T00:13:57.233Z,9.47
2019-05-18T00:16:26.971Z,9.10
2019-05-18T00:18:56.617Z,9.23
2019-05-18T00:21:26.278Z,10.90
2019-05-18T00:23:55.891Z,9.93
2019-05-18T00:26:25.748Z,9.87
2019-05-18T00:28:55.347Z,9.97
2019-05-18T00:31:24.969Z,11.73
2019-05-18T00:33:54.834Z,8.30
2019-05-18T00:36:24.415Z,11.07
2019-05-18T00:38:54.124Z,12.03
2019-05-18T00:41:23.776Z,10.20
2019-05-18T00:43:53.364Z,16.77
2019-05-18T00:46:22.976Z,11.33
2019-05-18T00:48:52.964Z,11.23
2019-05-18T00:51:23.398Z,9.03
2019-05-18T00:53:53.176Z,10.97
2019-05-18T00:56:22.727Z,13.83
2019-05-18T00:58:52.390Z,15.37
2019-05-18T01:01:22.092Z,11.03
2019-05-18T01:03:54.416Z,9.93
2019-05-18T01:06:24.136Z,10.17
2019-05-18T01:08:53.740Z,11.90
2019-05-18T01:11:23.383Z,12.17
2019-05-18T01:13:52.955Z,16.03
2019-05-18T01:16:22.673Z,8.57
2019-05-18T01:18:52.380Z,8.50
2019-05-18T01:21:22.022Z,9.27
2019-05-18T01:23:51.625Z,9.30
2019-05-18T01:26:21.235Z,7.67
2019-05-18T01:28:50.809Z,7.07
2019-05-18T01:31:20.443Z,7.67
2019-05-18T01:33:51.899Z,6.80
2019-05-18T01:36:21.546Z,7.17
2019-05-18T01:38:51.201Z,12.87
2019-05-18T01:41:20.942Z,9.20
2019-05-18T01:43:50.520Z,8.67
2019-05-18T01:46:20.492Z,7.80
2019-05-18T01:48:50.013Z,6.83
2019-05-18T01:51:19.871Z,6.90
2019-05-18T01:53:49.544Z,6.00
2019-05-18T01:56:19.131Z,6.83
2019-05-18T01:58:48.647Z,6.30
2019-05-18T02:01:18.302Z,6.17
2019-05-18T02:03:47.949Z,6.07
2019-05-18T02:06:17.513Z,6.60
2019-05-18T02:08:47.378Z,6.63
2019-05-18T02:11:17.098Z,6.63
2019-05-18T02:13:46.884Z,6.47
2019-05-18T02:16:16.663Z,7.67
2019-05-18T02:18:46.365Z,6.47
2019-05-18T02:21:15.996Z,8.27
2019-05-18T02:23:45.792Z,6.87
2019-05-18T02:26:15.448Z,8.00
2019-05-18T02:28:45.117Z,8.27
2019-05-18T02:31:14.768Z,9.33
2019-05-18T02:33:44.382Z,6.60
2019-05-18T02:36:13.974Z,7.70
2019-05-18T02:38:43.654Z,6.90
2019-05-18T02:41:13.283Z,10.00
2019-05-18T02:43:43.156Z,8.70
2019-05-18T02:46:12.937Z,6.30
2019-05-18T02:48:49.438Z,6.40
2019-05-18T02:51:13.836Z,6.80
2019-05-18T02:53:43.655Z,5.93
2019-05-18T02:56:13.457Z,8.50
2019-05-18T02:58:43.048Z,9.10
2019-05-18T03:01:12.856Z,10.40
2019-05-18T03:03:42.693Z,7.20
2019-05-18T03:06:12.295Z,6.33
2019-05-18T03:08:42.035Z,9.20
2019-05-18T03:11:11.729Z,6.97
2019-05-18T03:13:42.498Z,6.17
2019-05-18T03:16:12.221Z,7.30
2019-05-18T03:18:41.937Z,7.00
2019-05-18T03:21:11.499Z,11.30
2019-05-18T03:23:41.080Z,8.43
2019-05-18T03:26:11.091Z,8.40
2019-05-18T03:28:40.808Z,8.00
2019-05-18T03:31:10.526Z,7.53
2019-05-18T03:33:40.167Z,8.43
2019-05-18T03:36:09.733Z,10.03
2019-05-18T03:38:39.451Z,7.63
2019-05-18T03:41:08.986Z,7.67
2019-05-18T03:43:38.614Z,8.40
2019-05-18T03:46:08.175Z,13.47
2019-05-18T03:48:37.777Z,7.23
2019-05-18T03:51:07.562Z,9.83
2019-05-18T03:53:37.389Z,8.87
2019-05-18T03:56:06.990Z,10.07
2019-05-18T03:58:36.548Z,8.70
2019-05-18T04:01:06.160Z,9.23
2019-05-18T04:03:35.736Z,10.63
2019-05-18T04:06:05.320Z,9.37
2019-05-18T04:08:35.142Z,12.30
2019-05-18T04:11:04.751Z,9.87
2019-05-18T04:13:34.466Z,7.90
2019-05-18T04:16:04.116Z,10.13
2019-05-18T04:18:36.787Z,8.63
2019-05-18T04:21:08.469Z,10.43
2019-05-18T04:23:38.082Z,8.93
2019-05-18T04:26:07.918Z,8.70
2019-05-18T04:28:37.830Z,8.40
2019-05-18T04:31:07.536Z,7.30
2019-05-18T04:33:37.234Z,10.67
2019-05-18T04:36:06.850Z,11.20
2019-05-18T04:38:36.489Z,8.27
2019-05-18T04:41:06.076Z,8.87
2019-05-18T04:43:35.751Z,9.40
2019-05-18T04:46:05.501Z,9.30
2019-05-18T04:48:35.101Z,9.87
2019-05-18T04:51:04.827Z,8.07
2019-05-18T04:53:34.396Z,8.30
2019-05-18T04:56:04.088Z,8.23
2019-05-18T04:58:33.671Z,10.43
2019-05-18T05:01:03.312Z,8.40
2019-05-18T05:03:32.832Z,9.10
2019-05-18T05:06:02.531Z,7.63
2019-05-18T05:08:32.071Z,7.67
2019-05-18T05:11:01.680Z,8.67
2019-05-18T05:13:31.207Z,12.37
2019-05-18T05:16:00.983Z,8.60
2019-05-18T05:18:30.579Z,10.73
2019-05-18T05:21:00.283Z,12.73
2019-05-18T05:23:29.893Z,8.00
2019-05-18T05:25:59.469Z,11.73
2019-05-18T05:28:29.136Z,8.70
2019-05-18T05:30:58.934Z,8.83
2019-05-18T05:33:28.608Z,9.30
2019-05-18T05:35:58.183Z,11.50
2019-05-18T05:38:27.994Z,11.53
2019-05-18T05:40:57.645Z,9.83
2019-05-18T05:43:27.293Z,8.07
2019-05-18T05:45:57.143Z,9.43
2019-05-18T05:48:26.771Z,9.17
2019-05-18T05:50:56.630Z,10.23
2019-05-18T05:53:26.312Z,12.50
2019-05-18T05:55:55.960Z,10.67
2019-05-18T05:58:25.627Z,10.07
2019-05-18T06:00:55.634Z,9.20
2019-05-18T06:03:25.164Z,11.63
2019-05-18T06:05:54.859Z,10.77
2019-05-18T06:08:24.747Z,13.70
2019-05-18T06:10:54.395Z,9.57
2019-05-18T06:13:24.096Z,11.60
2019-05-18T06:15:54.142Z,11.70
2019-05-18T06:18:23.713Z,10.93
2019-05-18T06:20:53.368Z,12.40
2019-05-18T06:23:22.943Z,10.57
2019-05-18T06:25:52.623Z,13.83
2019-05-18T06:28:22.274Z,11.30
2019-05-18T06:30:52.112Z,11.60
2019-05-18T06:33:21.697Z,11.73
2019-05-18T06:35:51.490Z,12.57
2019-05-18T06:38:21.101Z,11.07
2019-05-18T06:40:50.821Z,17.90
2019-05-18T06:43:20.499Z,11.10
2019-05-18T06:45:50.142Z,16.40
2019-05-18T06:48:19.739Z,19.60
2019-05-18T06:50:49.471Z,10.30
2019-05-18T06:53:20.573Z,11.37
2019-05-18T06:55:50.931Z,12.17
2019-05-18T06:58:22.687Z,16.17
2019-05-18T07:00:52.300Z,12.50
2019-05-18T07:03:21.951Z,16.40
2019-05-18T07:05:51.678Z,10.80
2019-05-18T07:08:21.281Z,13.57
2019-05-18T07:10:50.918Z,11.87
2019-05-18T07:13:20.556Z,11.27
2019-05-18T07:15:50.138Z,10.33
2019-05-18T07:18:19.863Z,10.03
2019-05-18T07:20:49.586Z,9.70
2019-05-18T07:23:19.191Z,8.97
2019-05-18T07:25:48.882Z,9.27
2019-05-18T07:28:18.531Z,7.67
2019-05-18T07:30:48.069Z,8.67
2019-05-18T07:33:17.749Z,11.30
2019-05-18T07:35:47.294Z,8.30
2019-05-18T07:38:17.040Z,8.43
2019-05-18T07:40:47.245Z,8.20
2019-05-18T07:43:17.107Z,16.27
2019-05-18T07:45:46.667Z,8.97
2019-05-18T07:48:16.324Z,8.90
2019-05-18T07:50:46.265Z,7.57
2019-05-18T07:53:15.969Z,9.57
2019-05-18T07:55:45.723Z,10.53
2019-05-18T07:58:15.711Z,11.97
2019-05-18T08:00:45.283Z,7.50
2019-05-18T08:03:15.046Z,10.37
2019-05-18T08:05:44.659Z,6.70
2019-05-18T08:08:14.943Z,8.20
2019-05-18T08:10:44.553Z,8.20
2019-05-18T08:13:14.180Z,8.00
2019-05-18T08:15:43.852Z,7.33
2019-05-18T08:18:13.427Z,9.93
2019-05-18T08:20:43.061Z,6.70
2019-05-18T08:23:12.596Z,7.67
2019-05-18T08:25:42.451Z,6.50
2019-05-18T08:28:12.047Z,5.77
2019-05-18T08:30:41.634Z,5.50
2019-05-18T08:33:11.544Z,6.30
2019-05-18T08:35:41.261Z,6.00
2019-05-18T08:38:10.922Z,5.60
2019-05-18T08:40:40.592Z,11.63
2019-05-18T08:43:10.359Z,7.93
2019-05-18T08:45:39.887Z,6.73
2019-05-18T08:48:09.553Z,6.47
2019-05-18T08:50:39.198Z,6.83
2019-05-18T08:53:08.840Z,6.30
2019-05-18T08:55:38.407Z,6.90
2019-05-18T08:58:08.087Z,9.50
2019-05-18T09:00:40.836Z,6.27
2019-05-18T09:03:10.434Z,6.00
2019-05-18T09:05:44.069Z,7.10
2019-05-18T09:08:13.941Z,7.30
2019-05-18T09:10:44.695Z,7.10
2019-05-18T09:13:14.444Z,7.97
2019-05-18T09:15:45.391Z,7.07
2019-05-18T09:18:15.064Z,9.70
2019-05-18T09:20:44.871Z,6.87
2019-05-18T09:23:14.692Z,6.73
2019-05-18T09:25:44.691Z,7.37
2019-05-18T09:28:14.337Z,7.33
2019-05-18T09:30:44.083Z,7.83
2019-05-18T09:33:14.379Z,7.17
2019-05-18T09:35:44.187Z,7.23
2019-05-18T09:38:13.868Z,5.37
2019-05-18T09:40:43.634Z,7.57
2019-05-18T09:43:13.289Z,7.67
2019-05-18T09:45:43.199Z,6.37
2019-05-18T09:48:12.917Z,11.47
2019-05-18T09:50:42.730Z,12.20
2019-05-18T09:53:12.407Z,6.43
2019-05-18T09:55:42.035Z,7.43
2019-05-18T09:58:11.642Z,8.10
2019-05-18T10:00:41.308Z,6.87
2019-05-18T10:03:11.088Z,8.37
2019-05-18T10:05:40.807Z,8.97
2019-05-18T10:08:10.385Z,7.87
2019-05-18T10:10:40.183Z,7.67
2019-05-18T10:13:09.904Z,8.33
2019-05-18T10:15:39.505Z,10.37
2019-05-18T10:18:09.244Z,9.27
2019-05-18T10:20:38.790Z,11.87
2019-05-18T10:23:12.818Z,8.40
2019-05-18T10:25:39.886Z,7.23
2019-05-18T10:28:09.589Z,8.40
2019-05-18T10:30:39.222Z,9.87
2019-05-18T10:33:09.220Z,9.90
2019-05-18T10:35:38.901Z,11.07
2019-05-18T10:38:08.446Z,11.70
2019-05-18T10:40:38.252Z,10.60
2019-05-18T10:43:07.918Z,11.97
2019-05-18T10:45:37.585Z,10.80
2019-05-18T10:48:07.323Z,12.40
2019-05-18T10:50:37.022Z,10.37
2019-05-18T10:53:06.768Z,10.37
2019-05-18T10:55:36.445Z,10.67
2019-05-18T10:58:06.078Z,9.70
2019-05-18T11:00:35.732Z,11.53
2019-05-18T11:03:06.458Z,14.00
2019-05-18T11:05:36.219Z,10.87
2019-05-18T11:08:06.109Z,11.67
2019-05-18T11:10:35.892Z,12.13
2019-05-18T11:13:05.531Z,11.10
2019-05-18T11:15:35.258Z,14.40
2019-05-18T11:18:04.934Z,11.70
2019-05-18T11:20:34.631Z,11.40
2019-05-18T11:23:05.358Z,13.93
2019-05-18T11:25:34.943Z,13.37
2019-05-18T11:28:04.910Z,11.13
2019-05-18T11:30:34.488Z,8.00
2019-05-18T11:33:04.151Z,8.40
2019-05-18T11:35:33.919Z,10.60
2019-05-18T11:38:03.598Z,9.10
2019-05-18T11:40:33.192Z,6.77
2019-05-18T11:43:02.839Z,7.97
2019-05-18T11:45:32.542Z,10.10
2019-05-18T11:48:02.300Z,9.43
2019-05-18T11:50:31.904Z,9.87
2019-05-18T11:53:01.773Z,9.60
2019-05-18T11:55:31.480Z,12.50
2019-05-18T11:58:01.190Z,12.30
2019-05-18T12:00:31.677Z,10.03
2019-05-18T12:03:01.289Z,13.33
2019-05-18T12:05:31.007Z,8.00
2019-05-18T12:08:00.602Z,11.60
2019-05-18T12:10:30.524Z,13.93
2019-05-18T12:13:00.175Z,9.37
2019-05-18T12:15:30.175Z,6.87
2019-05-18T12:17:59.956Z,6.63
2019-05-18T12:20:29.610Z,6.77
2019-05-18T12:22:59.408Z,7.10
2019-05-18T12:25:29.127Z,6.77
2019-05-18T12:27:58.864Z,4.90
2019-05-18T12:30:29.232Z,6.03
2019-05-18T12:32:58.989Z,5.97
2019-05-18T12:35:28.595Z,5.20
2019-05-18T12:37:58.271Z,10.83
2019-05-18T12:40:28.091Z,9.10
2019-05-18T12:42:57.702Z,7.97
2019-05-18T12:45:27.695Z,12.13
2019-05-18T12:47:57.372Z,5.17
2019-05-18T12:50:28.285Z,8.20
2019-05-18T12:52:58.296Z,6.70
2019-05-18T12:55:28.091Z,8.03
2019-05-18T12:57:57.961Z,5.17
2019-05-18T13:00:27.953Z,6.50
2019-05-18T13:02:57.702Z,5.20
2019-05-18T13:05:27.359Z,7.53
2019-05-18T13:07:56.993Z,13.93
2019-05-18T13:10:26.852Z,6.27
2019-05-18T13:12:56.504Z,4.50
2019-05-18T13:15:26.106Z,3.70
2019-05-18T13:17:55.838Z,4.30
2019-05-18T13:20:25.690Z,3.50
2019-05-18T13:22:55.306Z,6.03
2019-05-18T13:25:25.042Z,5.30
2019-05-18T13:27:54.712Z,3.13
2019-05-18T13:30:24.568Z,4.30
2019-05-18T13:32:54.240Z,4.70
2019-05-18T13:35:24.694Z,4.77
2019-05-18T13:37:54.398Z,2.43
2019-05-18T13:40:24.331Z,4.00
2019-05-18T13:42:53.933Z,1.83
2019-05-18T13:45:24.224Z,1.83
2019-05-18T13:47:53.845Z,2.23
2019-05-18T13:50:24.080Z,2.63
2019-05-18T13:52:53.802Z,2.30
2019-05-18T13:55:23.412Z,2.00
2019-05-18T13:57:53.097Z,3.37
2019-05-18T14:00:22.978Z,2.63
2019-05-18T14:02:52.634Z,3.13
2019-05-18T14:05:22.303Z,2.80
2019-05-18T14:07:52.004Z,2.20
2019-05-18T14:10:21.794Z,2.40
2019-05-18T14:12:51.378Z,2.93
2019-05-18T14:15:22.904Z,2.80
2019-05-18T14:17:53.703Z,8.23
2019-05-18T14:20:26.500Z,2.40
2019-05-18T14:22:56.535Z,8.67
2019-05-18T14:25:26.070Z,4.47
2019-05-18T14:27:55.790Z,2.50
2019-05-18T14:30:25.478Z,4.60
2019-05-18T14:32:55.062Z,4.27
2019-05-18T14:35:24.736Z,2.03
2019-05-18T14:37:55.603Z,2.23
2019-05-18T14:40:25.273Z,2.10
2019-05-18T14:42:54.885Z,3.03
2019-05-18T14:45:24.432Z,1.50
2019-05-18T14:47:55.296Z,2.40
2019-05-18T14:50:24.974Z,1.43
2019-05-18T14:52:54.877Z,2.90
2019-05-18T14:55:33.305Z,2.90
2019-05-18T14:57:57.320Z,3.13
2019-05-18T15:00:27.131Z,1.80
2019-05-18T15:02:56.818Z,1.43
2019-05-18T15:05:26.535Z,2.03
2019-05-18T15:07:56.218Z,1.23
2019-05-18T15:10:25.827Z,2.50
2019-05-18T15:12:55.613Z,2.77
2019-05-18T15:15:25.543Z,2.50
2019-05-18T15:17:55.169Z,1.90
2019-05-18T15:20:24.855Z,1.60
2019-05-18T15:22:54.567Z,2.30
2019-05-18T15:30:34.688Z,6.93
2019-05-18T15:33:04.456Z,2.53
2019-05-18T15:35:34.121Z,2.40
2019-05-18T15:38:03.746Z,4.10
2019-05-18T15:40:33.384Z,3.87
2019-05-18T15:43:03.093Z,2.63
2019-05-18T15:45:32.803Z,1.80
2019-05-18T15:48:04.561Z,8.00
2019-05-18T15:50:34.132Z,1.90
2019-05-18T15:53:04.153Z,2.17
2019-05-18T15:55:33.817Z,2.90
2019-05-18T15:58:04.590Z,3.10
2019-05-18T16:00:34.300Z,2.40
2019-05-18T16:03:03.911Z,2.37
2019-05-18T16:05:34.715Z,7.00
2019-05-18T16:08:04.409Z,2.23
2019-05-18T16:10:33.945Z,2.40
2019-05-18T16:13:03.610Z,2.70
2019-05-18T16:15:33.375Z,2.10
2019-05-18T16:18:02.984Z,2.40
2019-05-18T16:20:34.021Z,5.73
2019-05-18T16:23:03.783Z,2.37
2019-05-18T16:25:33.545Z,4.90
2019-05-18T16:28:03.293Z,3.13
2019-05-18T16:30:32.943Z,2.30
2019-05-18T16:33:02.660Z,2.23
2019-05-18T16:35:33.262Z,3.07
2019-05-18T16:38:02.957Z,7.50
2019-05-18T16:40:32.490Z,2.67
2019-05-18T16:43:02.266Z,1.77
2019-05-18T16:45:31.845Z,2.47
2019-05-18T16:48:01.486Z,2.40
2019-05-18T16:50:32.025Z,6.37
2019-05-18T16:53:02.027Z,2.10
2019-05-18T16:55:32.897Z,2.27
2019-05-18T16:58:02.691Z,2.50
2019-05-18T17:00:32.530Z,2.73
2019-05-18T17:03:03.564Z,2.47
2019-05-18T17:05:33.321Z,2.43
2019-05-18T17:08:02.908Z,3.30
2019-05-18T17:10:32.608Z,3.80
2019-05-18T17:13:03.395Z,4.17
2019-05-18T17:15:33.010Z,3.77
2019-05-18T17:18:02.583Z,5.03
2019-05-18T17:20:32.351Z,4.10
2019-05-18T17:23:02.038Z,2.03
2019-05-18T17:25:31.759Z,2.60
2019-05-18T17:28:03.116Z,2.50
2019-05-18T17:30:32.930Z,3.23
2019-05-18T17:33:02.654Z,2.60
2019-05-18T17:35:32.399Z,3.83
2019-05-18T17:38:02.001Z,3.10
2019-05-18T17:40:31.809Z,2.90
2019-05-18T17:43:01.586Z,3.50
2019-05-18T17:45:32.349Z,3.33
2019-05-18T17:48:02.979Z,2.63
2019-05-18T17:50:32.595Z,7.87
2019-05-18T17:53:02.344Z,2.43
2019-05-18T17:55:33.448Z,4.17
2019-05-18T17:58:03.108Z,4.20
2019-05-18T18:00:32.675Z,3.53
2019-05-18T18:03:02.388Z,3.07
2019-05-18T18:05:31.968Z,2.50
2019-05-18T18:08:01.716Z,3.20
2019-05-18T18:10:31.348Z,5.70
2019-05-18T18:13:01.069Z,2.43
2019-05-18T18:15:30.654Z,4.27
2019-05-18T18:18:00.357Z,3.60
2019-05-18T18:20:29.901Z,5.13
2019-05-18T18:22:59.547Z,5.90
2019-05-18T18:25:29.150Z,4.00
2019-05-18T18:27:58.860Z,3.60
2019-05-18T18:30:28.531Z,3.47
2019-05-18T18:32:58.275Z,2.20
2019-05-18T18:35:27.937Z,3.00
2019-05-18T18:37:57.577Z,3.17
2019-05-18T18:40:28.392Z,2.70
2019-05-18T18:42:59.558Z,3.40
2019-05-18T18:45:29.296Z,2.90
2019-05-18T18:47:58.902Z,2.73
2019-05-18T18:50:28.614Z,3.60
2019-05-18T18:52:58.220Z,3.97
2019-05-18T18:55:29.561Z,3.33
2019-05-18T18:57:59.301Z,4.43
2019-05-18T19:00:29.123Z,9.20
2019-05-18T19:02:58.831Z,3.67
2019-05-18T19:05:28.523Z,3.67
2019-05-18T19:07:58.328Z,3.50
2019-05-18T19:10:28.015Z,4.17
2019-05-18T19:12:57.918Z,3.33
2019-05-18T19:15:27.683Z,5.20
2019-05-18T19:17:57.216Z,9.40
2019-05-18T19:20:26.815Z,5.90
2019-05-18T19:22:56.882Z,12.80
2019-05-18T19:25:26.599Z,9.90
2019-05-18T19:27:57.867Z,8.93
2019-05-18T19:30:27.399Z,6.40
2019-05-18T19:32:58.161Z,4.57
2019-05-18T19:35:27.784Z,4.40
2019-05-18T19:37:57.380Z,3.90
2019-05-18T19:40:27.171Z,5.13
2019-05-18T19:42:56.880Z,5.97
2019-05-18T19:45:26.523Z,7.23
2019-05-18T19:47:56.240Z,4.40
2019-05-18T19:50:25.868Z,5.47
2019-05-18T19:52:55.564Z,4.77
2019-05-18T19:55:25.184Z,4.80
2019-05-18T19:58:07.806Z,4.67
2019-05-18T20:00:26.173Z,4.90
2019-05-18T20:02:55.822Z,5.13
2019-05-18T20:05:25.538Z,7.33
2019-05-18T20:07:55.259Z,6.50
2019-05-18T20:10:24.915Z,6.97
2019-05-18T20:12:54.549Z,6.80
2019-05-18T20:15:25.434Z,7.93
2019-05-18T20:17:54.976Z,10.10
2019-05-18T20:20:24.880Z,5.47
2019-05-18T20:22:54.585Z,5.10
2019-05-18T20:25:24.387Z,12.83
2019-05-18T20:27:54.971Z,10.40
2019-05-18T20:30:24.789Z,7.80
2019-05-18T20:32:54.601Z,10.70
2019-05-18T20:35:25.866Z,6.93
2019-05-18T20:37:58.252Z,6.23
2019-05-18T20:40:29.117Z,9.70
2019-05-18T20:42:58.793Z,6.20
2019-05-18T20:45:28.602Z,8.23
2019-05-18T20:47:58.240Z,8.20
2019-05-18T20:50:27.865Z,7.07
2019-05-18T20:52:57.714Z,9.03
2019-05-18T20:55:27.518Z,6.47
2019-05-18T20:57:57.116Z,7.20
2019-05-18T21:00:26.871Z,7.53
2019-05-18T21:02:56.549Z,5.63
2019-05-18T21:05:26.265Z,7.93
2019-05-18T21:07:56.998Z,7.07
2019-05-18T21:10:26.649Z,6.00
2019-05-18T21:12:57.522Z,9.63
2019-05-18T21:15:27.174Z,9.37
2019-05-18T21:17:56.697Z,8.27
2019-05-18T21:20:26.459Z,7.00
2019-05-18T21:22:56.063Z,8.73
2019-05-18T21:25:25.794Z,10.93
2019-05-18T21:27:55.473Z,8.63
2019-05-18T21:30:25.060Z,6.47
2019-05-18T21:32:55.244Z,6.27
2019-05-18T21:35:24.854Z,8.50
2019-05-18T21:37:54.488Z,6.37
2019-05-18T21:40:26.352Z,8.37
2019-05-18T21:42:57.115Z,7.13
2019-05-18T21:45:26.677Z,5.93
2019-05-18T21:47:56.265Z,7.10
2019-05-18T21:50:25.849Z,5.70
2019-05-18T21:52:55.759Z,11.63
2019-05-18T21:55:26.427Z,7.57
2019-05-18T21:57:56.040Z,9.03
2019-05-18T22:00:25.792Z,6.97
2019-05-18T22:02:55.418Z,7.63
2019-05-18T22:05:25.012Z,6.23
2019-05-18T22:07:54.977Z,8.17
2019-05-18T22:10:26.046Z,8.63
2019-05-18T22:12:56.410Z,6.83
2019-05-18T22:15:27.962Z,9.27
2019-05-18T22:18:06.329Z,6.57
2019-05-18T22:20:43.279Z,6.70
2019-05-18T22:23:08.211Z,8.57
2019-05-18T22:25:37.756Z,8.43
2019-05-18T22:28:07.613Z,9.90
2019-05-18T22:30:37.272Z,7.70
2019-05-18T22:33:07.046Z,6.60
2019-05-18T22:35:36.588Z,7.10
2019-05-18T22:38:06.336Z,8.13
2019-05-18T22:40:35.945Z,8.30
2019-05-18T22:43:05.823Z,8.93
2019-05-18T22:45:35.528Z,6.20
2019-05-18T22:48:05.082Z,8.13
2019-05-18T22:50:34.835Z,6.40
2019-05-18T22:53:04.521Z,7.83
2019-05-18T22:55:34.279Z,7.37
2019-05-18T22:58:03.996Z,9.63
2019-05-18T23:00:33.857Z,8.23
2019-05-18T23:03:03.371Z,7.20
2019-05-18T23:05:32.999Z,13.33
2019-05-18T23:08:04.159Z,7.43
2019-05-18T23:10:33.787Z,9.00
2019-05-18T23:13:03.430Z,8.57
2019-05-18T23:15:33.159Z,12.83
2019-05-18T23:18:02.795Z,9.30
2019-05-18T23:20:32.626Z,10.80
2019-05-18T23:23:02.217Z,7.90
2019-05-18T23:25:31.831Z,8.43
2019-05-18T23:28:01.384Z,8.50
2019-05-18T23:30:31.011Z,9.80
2019-05-18T23:33:00.576Z,20.27
2019-05-18T23:35:30.276Z,7.50
2019-05-18T23:37:59.814Z,8.77
2019-05-18T23:40:29.443Z,10.23
2019-05-18T23:42:59.176Z,6.90
2019-05-18T23:45:28.859Z,7.93
2019-05-18T23:47:59.603Z,8.53
2019-05-18T23:50:29.372Z,9.50
2019-05-18T23:52:58.944Z,11.50
2019-05-18T23:55:28.641Z,10.27
2019-05-18T23:58:05.256Z,10.50
